Time;durP1;ratioP1;P1;durP2;ratioP2;P2;SDS_P1;SDS_P2;PMS_P1;PMS_P2;Temp;Humidity;BMP_temperature;BMP_pressure;BME280_temperature;BME280_humidity;BME280_pressure;Samples;Min_cycle;Max_cycle;Signal;HPM_P1;HPM_P2
2021/11/26 00:00:41;;;;;;;6.35;3.50;;;8.00;99.90;;;8.42;81.54;100645.78;5054779;28;20067;-69
2021/11/26 00:03:09;;;;;;;6.68;3.85;;;8.20;99.90;;;8.62;80.63;100617.69;5056419;28;20045;-69
2021/11/26 00:05:39;;;;;;;6.22;3.40;;;8.40;99.90;;;8.75;79.60;100623.84;5056157;28;20453;-69
2021/11/26 00:08:07;;;;;;;5.23;3.50;;;8.60;99.90;;;8.89;78.68;100614.13;5056112;28;20045;-69
2021/11/26 00:10:36;;;;;;;6.78;3.50;;;8.70;99.90;;;8.97;78.64;100610.63;5071715;28;20419;-69
2021/11/26 00:13:08;;;;;;;4.88;3.25;;;8.80;99.90;;;9.04;78.28;100600.91;5056130;28;20445;-69
2021/11/26 00:15:38;;;;;;;3.65;3.08;;;8.80;99.90;;;9.14;77.62;100599.16;5056256;28;20052;-69
2021/11/26 00:18:10;;;;;;;5.07;3.53;;;8.90;99.90;;;9.17;77.02;100596.47;5055970;28;20383;-69
2021/11/26 00:20:40;;;;;;;6.40;3.60;;;8.90;99.90;;;9.19;77.15;100606.16;5056185;28;20041;-69
2021/11/26 00:23:09;;;;;;;5.35;3.28;;;9.00;99.90;;;8.95;77.22;100622.03;5054838;28;20103;-69
2021/11/26 00:25:37;;;;;;;13.20;4.70;;;8.80;99.90;;;8.31;78.70;100610.66;5055750;28;20398;-69
2021/11/26 00:28:06;;;;;;;15.63;4.70;;;8.30;99.90;;;8.58;79.16;100602.75;5055712;28;20079;-69
2021/11/26 00:30:35;;;;;;;11.93;4.18;;;8.30;99.90;;;8.70;78.94;100586.03;5055692;28;20076;-70
2021/11/26 00:33:04;;;;;;;6.85;3.70;;;8.50;99.90;;;8.68;78.61;100548.25;5055555;28;20102;-69
2021/11/26 00:35:32;;;;;;;7.10;3.75;;;8.60;99.90;;;8.95;78.76;100574.56;5055542;28;20124;-69
2021/11/26 00:38:03;;;;;;;6.13;3.58;;;8.70;99.90;;;9.03;78.37;100560.47;5055557;28;20395;-69
2021/11/26 00:40:32;;;;;;;;;;;8.80;99.90;;;9.00;77.96;100554.34;5055882;28;20045;-69
2021/11/26 00:43:00;;;;;;;7.38;3.38;;;8.90;99.90;;;9.13;77.46;100565.72;5055751;28;19943;-69
2021/11/26 00:45:29;;;;;;;8.85;3.65;;;8.90;99.90;;;9.19;77.54;100556.03;5055360;28;20434;-69
2021/11/26 00:47:57;;;;;;;5.05;4.00;;;9.00;99.90;;;9.31;77.51;100566.50;5055364;28;20060;-69
2021/11/26 00:50:26;;;;;;;9.13;3.72;;;9.00;99.90;;;9.34;77.10;100549.78;5055833;28;20079;-69
2021/11/26 00:52:55;;;;;;;8.35;3.60;;;9.10;99.90;;;9.41;76.69;100552.38;5055727;28;20047;-69
2021/11/26 00:55:24;;;;;;;5.55;3.30;;;9.10;99.90;;;9.45;76.59;100551.50;5055636;28;20431;-68
2021/11/26 00:57:53;;;;;;;6.87;3.70;;;9.20;99.90;;;9.39;75.29;100537.47;5055492;28;20099;-69
2021/11/26 01:00:22;;;;;;;8.20;3.78;;;9.10;99.90;;;9.43;75.45;100540.06;5055358;28;20323;-69
2021/11/26 01:02:50;;;;;;;6.18;3.63;;;9.20;99.90;;;9.48;75.47;100538.28;5055099;28;20446;-69
2021/11/26 01:05:19;;;;;;;9.55;3.58;;;9.30;99.90;;;9.41;75.59;100538.31;5055264;28;20103;-69
2021/11/26 01:07:48;;;;;;;5.88;3.70;;;9.20;99.90;;;9.38;75.81;100519.88;5054999;28;20090;-69
2021/11/26 01:10:20;;;;;;;6.78;3.85;;;9.10;99.90;;;9.43;76.14;100524.22;5054877;28;20041;-69
2021/11/26 01:12:50;;;;;;;5.45;3.70;;;9.20;99.90;;;9.34;75.63;100519.00;5054238;28;20114;-69
2021/11/26 01:15:22;;;;;;;8.88;4.05;;;9.10;99.90;;;9.27;75.88;100516.41;5054905;28;20044;-69
2021/11/26 01:17:51;;;;;;;6.50;3.47;;;8.90;99.90;;;9.28;76.38;100497.03;5054873;28;20095;-69
2021/11/26 01:20:22;;;;;;;7.32;3.58;;;9.00;99.90;;;9.26;76.35;100501.44;5053792;28;20131;-69
2021/11/26 01:22:51;;;;;;;6.30;3.65;;;9.00;99.90;;;9.30;76.40;100506.72;5070421;28;20105;-69
2021/11/26 01:25:21;;;;;;;4.70;3.83;;;9.00;99.90;;;9.30;76.87;100506.72;5054666;28;20045;-69
2021/11/26 01:27:52;;;;;;;7.25;3.67;;;9.00;99.90;;;9.31;76.64;100508.44;5054885;28;20358;-69
2021/11/26 01:30:25;;;;;;;;;;;9.00;99.90;;;9.34;76.44;100513.72;5055054;28;20041;-69
2021/11/26 01:32:55;;;;;;;6.78;3.60;;;9.10;99.90;;;9.35;76.68;100509.34;5054738;28;20317;-69
2021/11/26 01:35:23;;;;;;;6.68;4.00;;;9.10;99.90;;;9.41;76.69;100518.06;5054463;28;20049;-70
2021/11/26 01:37:53;;;;;;;6.38;3.70;;;9.10;99.90;;;9.30;77.15;100517.25;5054450;28;20068;-69
2021/11/26 01:40:22;;;;;;;6.45;3.65;;;9.10;99.90;;;9.37;77.47;100505.78;5054339;28;20144;-69
2021/11/26 01:42:55;;;;;;;7.75;3.95;;;9.10;99.90;;;9.44;77.41;100496.97;5070014;28;20051;-69
2021/11/26 01:45:24;;;;;;;10.13;3.85;;;9.10;99.90;;;9.29;77.27;100483.81;5054449;28;20115;-69
2021/11/26 01:47:53;;;;;;;6.07;4.18;;;9.10;99.90;;;9.45;77.17;100474.94;5070014;28;20064;-69
2021/11/26 01:50:23;;;;;;;9.57;3.88;;;9.10;99.90;;;8.61;77.40;100367.28;5054946;28;20139;-69
2021/11/26 01:52:52;;;;;;;9.13;4.47;;;9.00;99.90;;;8.96;77.44;100466.41;5069714;28;20544;-69
2021/11/26 01:55:21;;;;;;;13.43;4.45;;;8.90;99.90;;;8.67;77.96;100454.25;5054078;28;20072;-69
2021/11/26 01:57:51;;;;;;;13.05;4.72;;;8.60;99.90;;;8.45;78.00;100473.63;5053977;28;20391;-69
2021/11/26 02:00:26;;;;;;;10.15;3.92;;;8.40;99.90;;;8.69;77.08;100453.34;5054552;28;20079;-69
2021/11/26 02:02:55;;;;;;;8.63;4.55;;;8.50;99.90;;;8.71;77.08;100437.53;5053990;28;20045;-69
2021/11/26 02:05:24;;;;;;;12.00;4.70;;;8.50;99.90;;;8.79;77.04;100433.97;5053890;28;20115;-69
2021/11/26 02:07:52;;;;;;;10.25;4.38;;;8.70;99.90;;;8.77;77.04;100416.38;5053831;28;20053;-69
2021/11/26 02:10:21;;;;;;;8.55;3.70;;;8.70;99.90;;;8.87;77.38;100415.47;5054034;28;20462;-69
2021/11/26 02:12:51;;;;;;;9.75;4.75;;;8.70;99.90;;;9.05;76.91;100415.38;5054288;28;20460;-69
2021/11/26 02:15:23;;;;;;;11.23;4.47;;;8.80;99.90;;;9.03;76.55;100411.88;5052681;28;20049;-69
2021/11/26 02:17:53;;;;;;;7.70;4.20;;;8.90;99.90;;;9.02;76.80;100404.84;5053680;28;20041;-69
2021/11/26 02:20:25;;;;;;;9.82;4.32;;;8.80;99.90;;;8.99;76.93;100405.75;5053934;28;20446;-69
2021/11/26 02:22:56;;;;;;;9.70;4.57;;;8.80;99.90;;;9.01;76.69;100397.81;5053003;28;20091;-69
2021/11/26 02:25:26;;;;;;;11.40;4.60;;;8.80;99.90;;;8.99;76.41;100389.91;5053662;28;20049;-69
2021/11/26 02:27:57;;;;;;;10.10;4.53;;;8.80;99.90;;;8.49;76.29;100273.34;5053513;28;20045;-69
2021/11/26 02:30:27;;;;;;;12.68;5.15;;;8.80;99.90;;;9.17;75.87;100375.75;5053504;28;20045;-69
2021/11/26 02:32:59;;;;;;;12.93;5.05;;;8.90;99.90;;;9.22;75.67;100368.66;5053937;28;20129;-69
2021/11/26 02:35:31;;;;;;;12.52;4.60;;;9.00;99.90;;;9.29;75.10;100358.94;5053607;28;20441;-69
2021/11/26 02:38:00;;;;;;;11.52;4.88;;;9.00;99.90;;;9.34;74.67;100352.75;5053401;28;20445;-69
2021/11/26 02:40:30;;;;;;;12.23;4.60;;;9.10;99.90;;;8.79;74.07;100249.41;5053244;28;20064;-69
2021/11/26 02:43:00;;;;;;;14.13;5.00;;;9.10;99.90;;;9.39;73.78;100379.09;5053622;28;20041;-69
2021/11/26 02:45:29;;;;;;;16.73;4.43;;;9.10;99.90;;;9.40;74.10;100330.69;5053303;28;20120;-69
2021/11/26 02:48:00;;;;;;;17.73;4.47;;;9.10;99.90;;;9.44;73.53;100332.44;5053746;28;20041;-69
2021/11/26 02:50:32;;;;;;;9.00;4.47;;;9.20;99.90;;;9.40;73.77;100322.78;5068857;28;20044;-69
2021/11/26 02:53:01;;;;;;;11.43;4.68;;;9.20;99.90;;;9.25;73.72;100294.78;5053197;28;20052;-69
2021/11/26 02:55:33;;;;;;;17.58;5.28;;;9.20;99.90;;;9.41;73.60;100320.13;5053115;28;20052;-69
2021/11/26 02:58:02;;;;;;;16.60;5.07;;;9.20;99.90;;;8.82;73.13;100207.22;5053113;28;20107;-69
2021/11/26 03:00:31;;;;;;;21.83;5.68;;;9.20;99.90;;;9.20;72.33;100287.75;5052979;28;20087;-69
2021/11/26 03:03:00;;;;;;;19.17;5.33;;;9.10;99.90;;;9.22;70.49;100292.13;5053034;28;20091;-69
2021/11/26 03:05:30;;;;;;;17.73;5.35;;;9.00;99.90;;;8.99;70.57;100263.31;5053221;28;20049;-69
2021/11/26 03:07:58;;;;;;;19.08;5.22;;;9.00;99.90;;;9.19;69.63;100286.91;5052991;28;20094;-69
2021/11/26 03:10:27;;;;;;;18.90;6.45;;;9.00;99.90;;;8.98;68.87;100276.53;5068633;28;20088;-69
2021/11/26 03:12:59;;;;;;;18.15;5.75;;;8.90;99.90;;;9.01;68.50;100287.03;5052906;28;20041;-68
2021/11/26 03:15:30;;;;;;;16.35;5.40;;;8.80;99.90;;;8.88;68.57;100278.31;5052834;28;20045;-69
2021/11/26 03:17:59;;;;;;;15.30;5.72;;;8.70;99.90;;;9.01;67.38;100265.94;5052969;28;20119;-69
2021/11/26 03:20:30;;;;;;;16.30;5.72;;;8.70;99.90;;;8.83;68.19;100256.41;5052803;28;20120;-69
2021/11/26 03:22:59;;;;;;;16.35;5.60;;;8.70;99.90;;;8.81;67.32;100249.38;5051867;28;20402;-69
2021/11/26 03:25:27;;;;;;;16.38;4.85;;;8.60;99.90;;;8.76;67.38;100243.28;5053021;28;20123;-68
2021/11/26 03:27:56;;;;;;;17.90;5.70;;;8.60;99.90;;;8.71;67.85;100237.19;5052770;28;20045;-68
2021/11/26 03:30:25;;;;;;;17.20;6.07;;;8.60;99.90;;;8.64;67.55;100217.00;5053278;28;20406;-69
2021/11/26 03:32:56;;;;;;;19.40;5.75;;;8.50;99.90;;;8.76;67.58;100222.19;5052772;28;20037;-68
2021/11/26 03:35:25;;;;;;;18.75;5.60;;;8.50;99.90;;;8.76;67.71;100216.91;5054971;28;20099;-68
2021/11/26 03:37:55;;;;;;;20.55;5.95;;;8.60;99.90;;;8.86;67.62;100213.31;5056930;28;20490;-68
2021/11/26 03:40:25;;;;;;;15.48;5.20;;;8.70;99.90;;;8.86;67.42;100215.97;5057267;28;20163;-68
2021/11/26 03:42:55;;;;;;;15.05;6.13;;;8.70;99.90;;;8.96;67.31;100204.44;5056836;28;20044;-68
2021/11/26 03:45:27;;;;;;;19.20;5.88;;;8.80;99.90;;;8.95;66.97;100207.97;5056605;28;20453;-69
2021/11/26 03:47:56;;;;;;;16.95;5.15;;;8.80;99.90;;;9.01;66.56;100207.91;5056802;28;20045;-68
2021/11/26 03:50:26;;;;;;;19.52;5.72;;;8.80;99.90;;;9.10;66.31;100202.53;5057015;28;20041;-68
2021/11/26 03:52:56;;;;;;;13.60;4.88;;;8.90;99.90;;;9.07;66.11;100194.66;5057006;28;20033;-68
2021/11/26 03:55:28;;;;;;;19.70;5.35;;;8.90;99.90;;;8.83;66.64;100190.47;5055215;28;20053;-68
2021/11/26 03:57:58;;;;;;;13.88;4.78;;;8.70;99.90;;;9.02;65.80;100192.06;5056356;28;20045;-68
2021/11/26 04:00:27;;;;;;;17.17;5.28;;;8.80;99.90;;;8.98;65.52;100184.22;5056556;28;20040;-68
2021/11/26 04:02:56;;;;;;;14.70;5.50;;;8.80;99.90;;;8.95;64.92;100169.28;5056449;28;20051;-69
2021/11/26 04:05:25;;;;;;;19.90;5.80;;;8.80;99.90;;;8.73;64.94;100165.06;5056446;28;20045;-68
2021/11/26 04:08:00;;;;;;;17.58;5.57;;;8.60;99.90;;;8.49;65.43;100145.97;5056170;28;20376;-68
2021/11/26 04:10:29;;;;;;;24.40;5.60;;;8.50;99.90;;;8.77;64.92;100160.66;5056165;28;20069;-68
2021/11/26 04:12:58;;;;;;;15.77;5.38;;;8.60;99.90;;;8.51;65.28;100158.25;5055047;28;20053;-68
2021/11/26 04:15:27;;;;;;;14.38;5.32;;;8.40;99.90;;;8.54;65.23;100149.41;5055108;28;20573;-68
2021/11/26 04:18:00;;;;;;;15.35;5.63;;;8.40;99.90;;;8.41;64.89;100145.13;5055991;28;20091;-68
2021/11/26 04:20:30;;;;;;;18.15;6.07;;;8.30;99.90;;;8.35;63.83;100134.63;5055913;28;20045;-68
2021/11/26 04:23:01;;;;;;;18.80;5.22;;;8.20;99.90;;;8.37;63.26;100132.88;5056119;28;20045;-68
2021/11/26 04:25:30;;;;;;;;;;;8.20;99.90;;;8.23;63.69;100123.28;5056293;28;20391;-68
2021/11/26 04:27:59;;;;;;;14.10;5.03;;;8.10;99.90;;;8.29;63.70;100129.41;5056022;28;20019;-68
2021/11/26 04:30:29;;;;;;;13.48;5.28;;;8.10;99.90;;;8.22;62.96;100112.75;5055725;28;20087;-68
2021/11/26 04:32:58;;;;;;;16.77;5.53;;;8.10;99.90;;;8.30;63.04;100120.63;5071436;28;20041;-68
2021/11/26 04:35:27;;;;;;;11.15;5.78;;;8.10;99.90;;;8.30;61.80;100110.09;5055805;28;20124;-68
2021/11/26 04:37:56;;;;;;;13.68;5.38;;;8.10;99.90;;;8.39;61.82;100104.75;5055810;28;20091;-68
2021/11/26 04:40:25;;;;;;;14.65;5.32;;;8.20;99.90;;;8.41;61.15;100097.69;5054532;28;20497;-68
2021/11/26 04:42:54;;;;;;;16.90;4.90;;;8.20;99.90;;;8.36;61.00;100096.88;5056003;28;20041;-68
2021/11/26 04:45:22;;;;;;;20.40;5.97;;;8.20;99.90;;;8.37;62.02;100080.16;5055424;28;20295;-68
2021/11/26 04:47:51;;;;;;;12.05;5.88;;;8.20;99.90;;;8.36;62.29;100092.50;5054935;28;20116;-68
2021/11/26 04:50:19;;;;;;;20.77;6.07;;;8.20;99.90;;;8.48;62.19;100083.63;5055532;28;20441;-68
2021/11/26 04:52:49;;;;;;;19.23;5.47;;;8.30;99.90;;;8.43;62.10;100069.59;5055530;28;20107;-68
2021/11/26 04:55:18;;;;;;;16.38;5.97;;;8.30;99.90;;;8.32;62.25;100050.38;5055239;28;20397;-68
2021/11/26 04:57:48;;;;;;;14.38;6.22;;;8.30;99.90;;;8.36;61.18;100057.34;5055201;28;20132;-68
2021/11/26 05:00:20;;;;;;;15.77;5.57;;;8.20;99.90;;;8.47;61.29;100053.75;5055244;28;20087;-68
2021/11/26 05:02:48;;;;;;;16.90;5.40;;;8.30;99.90;;;8.53;61.50;100047.53;5055164;28;20045;-68
2021/11/26 05:05:17;;;;;;;16.73;5.35;;;8.40;99.90;;;8.51;61.02;100039.66;5055030;28;20040;-68
2021/11/26 05:07:46;;;;;;;11.77;6.10;;;8.30;99.90;;;8.64;61.44;100029.84;5055026;28;20120;-68
2021/11/26 05:10:19;;;;;;;13.00;5.68;;;8.40;99.90;;;8.71;61.01;100019.22;5053983;28;20041;-68
2021/11/26 05:12:52;;;;;;;16.17;5.63;;;8.50;99.90;;;8.56;61.51;99992.16;5055233;28;20114;-68
2021/11/26 05:15:24;;;;;;;17.67;5.68;;;8.50;99.90;;;8.64;61.22;100014.91;5055093;28;20045;-68
2021/11/26 05:17:53;;;;;;;23.35;6.32;;;8.40;99.90;;;8.63;61.46;100001.75;5055423;28;20083;-68
2021/11/26 05:20:22;;;;;;;16.85;5.72;;;8.40;99.90;;;8.61;61.32;99990.34;5054795;28;20213;-68
2021/11/26 05:22:52;;;;;;;14.57;6.47;;;8.40;99.90;;;8.62;61.49;99998.25;5054972;28;20065;-68
2021/11/26 05:25:21;;;;;;;13.40;6.57;;;8.40;99.90;;;8.65;61.64;99977.09;5053630;28;20052;-68
2021/11/26 05:27:52;;;;;;;13.38;5.38;;;8.40;99.90;;;8.77;61.83;99968.19;5054576;28;20594;-68
2021/11/26 05:30:21;;;;;;;13.77;6.63;;;8.50;99.90;;;8.75;61.83;99967.38;5054894;28;20045;-68
2021/11/26 05:32:50;;;;;;;16.60;5.93;;;8.50;99.90;;;8.74;61.40;99957.69;5054519;28;20041;-68
2021/11/26 05:35:19;;;;;;;15.20;5.60;;;8.50;99.90;;;8.69;61.21;99947.19;5054409;28;20399;-68
2021/11/26 05:37:48;;;;;;;12.50;5.45;;;8.50;99.90;;;8.52;61.29;99900.84;5054383;28;20048;-68
2021/11/26 05:40:17;;;;;;;17.60;5.75;;;8.50;99.90;;;8.81;61.59;99933.88;5054328;28;20072;-68
2021/11/26 05:42:46;;;;;;;12.82;5.28;;;8.50;99.90;;;8.78;61.66;99922.50;5054293;28;20041;-68
2021/11/26 05:45:17;;;;;;;12.02;5.15;;;8.50;99.90;;;8.84;61.34;99925.94;5054582;28;20123;-68
2021/11/26 05:47:46;;;;;;;11.50;4.85;;;8.50;99.90;;;8.78;61.52;99919.84;5053300;28;20041;-68
2021/11/26 05:50:18;;;;;;;11.52;5.63;;;8.50;99.90;;;8.78;61.86;99914.59;5054212;28;20045;-68
2021/11/26 05:52:47;;;;;;;11.98;5.90;;;8.50;99.90;;;8.80;61.72;99903.13;5053120;28;20045;-68
2021/11/26 05:55:19;;;;;;;10.90;4.63;;;8.50;99.90;;;8.88;61.35;99901.25;5054144;28;20124;-68
2021/11/26 05:57:48;;;;;;;14.27;5.25;;;8.60;99.90;;;8.79;61.48;99901.38;5054227;28;20075;-68
2021/11/26 06:00:21;;;;;;;12.30;4.82;;;8.50;99.90;;;8.13;61.06;99770.44;5053003;28;20143;-68
2021/11/26 06:02:51;;;;;;;13.15;5.28;;;8.60;99.90;;;8.81;60.55;99888.16;5069708;28;20103;-68
2021/11/26 06:05:19;;;;;;;10.37;4.80;;;8.60;99.90;;;8.57;60.96;99864.78;5054190;28;20368;-68
2021/11/26 06:07:48;;;;;;;10.02;5.00;;;8.50;99.90;;;8.57;60.95;99877.97;5053799;28;20120;-68
2021/11/26 06:10:17;;;;;;;11.02;5.03;;;8.40;99.90;;;8.47;60.60;99860.50;5053769;28;20632;-68
2021/11/26 06:12:48;;;;;;;8.73;5.05;;;8.30;99.90;;;8.48;60.92;99851.72;5053775;28;20061;-68
2021/11/26 06:15:20;;;;;;;12.38;4.97;;;8.30;99.90;;;8.39;60.86;99857.09;5053817;28;20049;-68
2021/11/26 06:17:49;;;;;;;12.57;5.00;;;8.10;99.90;;;8.52;60.24;99848.13;5053938;28;20033;-68
2021/11/26 06:20:19;;;;;;;10.63;5.10;;;8.20;99.90;;;8.53;60.71;99844.63;5053602;28;20067;-68
2021/11/26 06:22:48;;;;;;;9.48;5.13;;;8.20;99.90;;;8.66;61.41;99840.94;5053645;28;20045;-68
2021/11/26 06:25:18;;;;;;;9.80;5.47;;;8.30;99.90;;;8.61;61.81;99837.50;5054145;28;20076;-68
2021/11/26 06:27:49;;;;;;;15.13;5.15;;;8.30;99.90;;;8.44;61.23;99823.69;5053841;28;20048;-68
2021/11/26 06:30:24;;;;;;;12.68;4.50;;;8.30;99.90;;;8.45;61.62;99813.09;5053658;28;20433;-68
2021/11/26 06:32:54;;;;;;;9.70;4.47;;;8.20;99.90;;;8.45;62.00;99799.94;5053561;28;20065;-69
2021/11/26 06:35:25;;;;;;;9.45;4.60;;;8.20;99.90;;;8.28;62.18;99780.84;5053552;28;20106;-68
2021/11/26 06:37:56;;;;;;;8.52;4.55;;;8.20;99.90;;;8.51;62.88;99823.56;5053361;28;20048;-68
2021/11/26 06:40:26;;;;;;;15.02;5.35;;;8.30;99.90;;;8.51;62.79;99797.22;5052572;28;20061;-68
2021/11/26 06:42:55;;;;;;;12.63;5.10;;;8.30;99.90;;;7.93;62.94;99694.34;5053236;28;20048;-68
2021/11/26 06:45:24;;;;;;;14.25;5.22;;;8.30;99.90;;;7.87;63.40;99677.75;5068871;28;20053;-68
2021/11/26 06:47:53;;;;;;;10.27;5.18;;;8.30;99.90;;;8.60;63.02;99789.19;5053139;28;20406;-68
2021/11/26 06:50:22;;;;;;;15.43;4.63;;;8.30;99.90;;;8.56;63.24;99786.59;5053146;28;20068;-68
2021/11/26 06:52:50;;;;;;;17.33;5.20;;;8.30;99.90;;;8.37;63.08;99774.56;5053339;28;20044;-68
2021/11/26 06:55:19;;;;;;;15.27;5.45;;;8.20;99.90;;;8.39;63.22;99783.31;5053022;28;20041;-68
2021/11/26 06:57:47;;;;;;;10.75;4.85;;;8.10;99.90;;;8.45;63.45;99767.44;5052222;28;20440;-68
2021/11/26 07:00:18;;;;;;;13.35;5.28;;;8.20;99.90;;;8.38;63.60;99763.16;5052970;28;20119;-68
2021/11/26 07:02:48;;;;;;;12.85;4.47;;;8.10;99.90;;;8.41;63.41;99749.91;5052951;28;20087;-68
2021/11/26 07:05:17;;;;;;;10.25;4.78;;;8.10;99.90;;;8.38;63.60;99742.91;5052911;28;20473;-68
2021/11/26 07:07:45;;;;;;;11.07;4.45;;;8.10;99.90;;;8.47;64.12;99745.44;5053180;28;20041;-65
2021/11/26 07:10:15;;;;;;;11.55;5.13;;;8.20;99.90;;;8.27;64.44;99728.16;5052539;28;20486;-67
2021/11/26 07:12:44;;;;;;;10.80;5.03;;;8.10;99.90;;;8.41;64.14;99734.13;5052785;28;20045;-69
2021/11/26 07:15:13;;;;;;;11.05;4.50;;;8.20;99.90;;;8.37;64.90;99721.88;5052919;28;20095;-68
2021/11/26 07:17:42;;;;;;;12.73;5.00;;;8.10;99.90;;;8.35;65.07;99705.22;5052616;28;20091;-68
2021/11/26 07:20:13;;;;;;;9.15;5.20;;;8.20;99.90;;;8.25;65.46;99706.22;5053092;28;20634;-68
2021/11/26 07:22:42;;;;;;;9.82;4.70;;;8.00;99.90;;;8.21;65.96;99684.31;5052868;28;20041;-66
2021/11/26 07:25:12;;;;;;;10.20;5.35;;;8.00;99.90;;;8.26;65.52;99695.69;5053282;28;20045;-69
2021/11/26 07:27:41;;;;;;;13.43;5.43;;;8.10;99.90;;;8.30;65.93;99683.34;5052789;28;20127;-68
2021/11/26 07:30:13;;;;;;;12.15;5.32;;;8.00;99.90;;;7.98;66.34;99652.16;5051707;28;20052;-69
2021/11/26 07:32:42;;;;;;;11.18;5.22;;;8.00;99.90;;;8.23;66.40;99681.69;5052769;28;20128;-69
2021/11/26 07:35:13;;;;;;;11.20;5.25;;;8.00;99.90;;;8.27;67.01;99676.34;5051524;28;20135;-71
2021/11/26 07:37:41;;;;;;;10.52;4.90;;;8.10;99.90;;;8.26;67.30;99669.38;5052681;28;20410;-70
2021/11/26 07:40:15;;;;;;;10.65;4.78;;;8.10;99.90;;;8.39;67.22;99677.94;5051620;28;20049;-68
2021/11/26 07:42:44;;;;;;;12.20;5.00;;;8.10;99.90;;;8.26;67.42;99656.19;5052540;28;20079;-66
2021/11/26 07:45:13;;;;;;;16.45;5.50;;;8.10;99.90;;;8.19;67.76;99655.38;5052498;28;20516;-67
2021/11/26 07:47:42;;;;;;;10.25;5.38;;;8.00;99.90;;;8.21;68.52;99644.81;5052508;28;20049;-67
2021/11/26 07:50:13;;;;;;;14.82;5.40;;;8.10;99.90;;;8.25;68.63;99645.66;5052455;28;20552;-67
2021/11/26 07:52:42;;;;;;;;;;;8.00;99.90;;;8.26;69.39;99631.59;5053008;28;20450;-66
2021/11/26 07:55:11;;;;;;;22.20;6.70;;;8.10;99.90;;;8.08;69.75;99623.06;5052691;28;19920;-67
2021/11/26 07:57:45;;;;;;;11.90;5.50;;;8.00;99.90;;;8.08;70.45;99625.69;5052525;28;20487;-69
2021/11/26 08:00:15;;;;;;;14.13;6.05;;;7.90;99.90;;;8.03;71.01;99638.03;5068138;28;20072;-67
2021/11/26 08:02:45;;;;;;;11.02;5.07;;;7.90;99.90;;;8.11;71.56;99615.09;5051213;28;20056;-67
2021/11/26 08:05:18;;;;;;;14.05;5.70;;;7.90;99.90;;;7.95;72.02;99613.59;5052762;28;20052;-69
2021/11/26 08:07:46;;;;;;;23.85;6.18;;;7.80;99.90;;;7.96;72.26;99591.63;5052655;28;20099;-67
2021/11/26 08:10:15;;;;;;;12.25;5.50;;;7.80;99.90;;;8.01;72.76;99596.84;5053155;28;20039;-67
2021/11/26 08:12:44;;;;;;;13.20;5.60;;;7.80;99.90;;;7.92;72.91;99592.56;5052303;28;20548;-66
2021/11/26 08:15:16;;;;;;;13.90;6.10;;;7.70;99.90;;;7.86;72.71;99573.34;5052265;28;20045;-66
2021/11/26 08:17:50;;;;;;;12.95;6.10;;;7.70;99.90;;;7.64;72.87;99564.03;5052357;28;20037;-66
2021/11/26 08:20:20;;;;;;;15.63;5.90;;;7.70;99.90;;;7.76;72.50;99559.47;5052918;28;20048;-68
2021/11/26 08:22:49;;;;;;;14.55;5.40;;;7.60;99.90;;;7.65;73.18;99574.53;5054819;28;20087;-68
2021/11/26 08:25:21;;;;;;;12.27;5.28;;;7.50;99.90;;;7.65;73.63;99553.47;5056068;28;20033;-68
2021/11/26 08:27:50;;;;;;;11.30;5.47;;;7.50;99.90;;;7.66;73.86;99546.47;5055712;28;20508;-68
2021/11/26 08:30:19;;;;;;;11.27;5.17;;;7.50;99.90;;;7.62;73.93;99534.25;5054722;28;20053;-68
2021/11/26 08:32:51;;;;;;;11.43;4.85;;;7.50;99.90;;;7.62;73.90;99527.22;5056011;28;20079;-67
2021/11/26 08:35:21;;;;;;;13.10;4.93;;;7.50;99.90;;;7.43;73.37;99495.94;5055615;28;20045;-69
2021/11/26 08:37:50;;;;;;;11.70;5.22;;;7.40;99.90;;;7.48;73.06;99530.94;5055209;28;20067;-70
2021/11/26 08:40:19;;;;;;;12.95;5.07;;;7.40;99.90;;;7.53;73.77;99519.44;5055780;28;20068;-68
2021/11/26 08:42:48;;;;;;;13.82;5.60;;;7.40;99.90;;;7.53;73.53;99532.59;5055277;28;20036;-69
2021/11/26 08:45:19;;;;;;;12.55;5.40;;;7.40;99.90;;;7.45;73.87;99495.03;5070722;28;20056;-69
2021/11/26 08:47:48;;;;;;;14.52;5.72;;;7.30;99.90;;;6.94;75.29;99433.50;5055381;28;20037;-69
2021/11/26 08:50:19;;;;;;;18.10;5.90;;;7.30;99.90;;;7.42;76.34;99486.28;5055416;28;20048;-69
2021/11/26 08:52:49;;;;;;;14.75;6.50;;;7.30;99.90;;;7.49;77.27;99483.53;5055525;28;20064;-68
2021/11/26 08:55:19;;;;;;;15.27;6.45;;;7.30;99.90;;;7.50;77.41;99484.44;5055076;28;20052;-67
2021/11/26 08:57:53;;;;;;;14.20;6.38;;;7.30;99.90;;;7.48;77.85;99471.31;5055280;28;20118;-68
2021/11/26 09:00:25;;;;;;;15.40;6.28;;;7.30;99.90;;;7.52;77.90;99456.34;5055417;28;20044;-68
2021/11/26 09:02:54;;;;;;;11.85;6.68;;;7.40;99.90;;;7.57;77.99;99489.56;5055141;28;20045;-68
2021/11/26 09:05:23;;;;;;;15.13;6.72;;;7.40;99.90;;;7.47;77.92;99445.88;5055352;28;20037;-68
2021/11/26 09:07:59;;;;;;;16.02;7.13;;;7.40;99.90;;;7.34;77.79;99456.63;5055557;28;20048;-68
2021/11/26 09:10:30;;;;;;;14.18;6.55;;;7.20;99.90;;;7.39;77.88;99460.94;5070753;28;20465;-68
2021/11/26 09:12:58;;;;;;;20.17;7.53;;;7.20;99.90;;;7.39;77.54;99442.50;5054997;28;20041;-68
2021/11/26 09:15:27;;;;;;;19.00;7.22;;;7.20;99.90;;;7.36;77.72;99429.38;5055144;28;20116;-68
2021/11/26 09:17:56;;;;;;;17.08;6.60;;;7.30;99.90;;;7.32;77.79;99414.53;5054994;28;20041;-68
2021/11/26 09:20:25;;;;;;;14.70;6.78;;;7.20;99.90;;;7.41;77.78;99434.59;5054655;28;20124;-68
2021/11/26 09:22:55;;;;;;;15.80;6.55;;;7.30;99.90;;;7.43;78.12;99432.81;5054728;28;20099;-68
2021/11/26 09:25:23;;;;;;;19.40;7.00;;;7.30;99.90;;;7.50;77.77;99424.81;5053975;28;20057;-67
2021/11/26 09:27:52;;;;;;;12.80;5.70;;;7.30;99.90;;;7.43;77.75;99411.78;5054864;28;20475;-67
2021/11/26 09:30:22;;;;;;;15.20;5.55;;;7.30;99.90;;;7.42;78.69;99410.00;5054538;28;20395;-68
2021/11/26 09:32:51;;;;;;;16.48;6.57;;;7.30;99.90;;;7.37;78.84;99396.97;5054125;28;20037;-68
2021/11/26 09:35:19;;;;;;;12.00;5.82;;;7.30;99.90;;;7.43;79.65;99396.88;5054518;28;20049;-68
2021/11/26 09:37:49;;;;;;;9.75;5.43;;;7.30;99.90;;;7.48;79.61;99399.41;5054338;28;20045;-68
2021/11/26 09:40:21;;;;;;;11.65;5.18;;;7.30;99.90;;;7.52;79.52;99387.94;5054439;28;20083;-68
2021/11/26 09:42:49;;;;;;;11.38;5.53;;;7.40;99.90;;;7.56;79.78;99377.34;5053393;28;20552;-68
2021/11/26 09:45:21;;;;;;;14.10;5.53;;;7.40;99.90;;;7.56;79.80;99366.84;5054258;28;20045;-68
2021/11/26 09:47:51;;;;;;;19.08;6.25;;;7.40;99.90;;;7.59;79.17;99377.28;5054314;28;20047;-71
2021/11/26 09:50:22;;;;;;;15.00;5.15;;;7.40;99.90;;;7.67;79.14;99358.75;5054210;28;20076;-68
2021/11/26 09:52:52;;;;;;;12.52;4.95;;;7.50;99.90;;;7.64;78.27;99353.56;5054227;28;20401;-69
2021/11/26 09:55:23;;;;;;;11.95;5.10;;;7.50;99.90;;;7.62;78.38;99339.56;5053949;28;20075;-67
2021/11/26 09:57:51;;;;;;;9.65;5.35;;;7.50;99.90;;;7.71;78.02;99345.53;5054234;28;20049;-67
2021/11/26 10:00:20;;;;;;;17.58;5.50;;;7.50;99.90;;;7.65;77.63;99335.09;5054065;28;20064;-68
2021/11/26 10:02:52;;;;;;;12.05;5.20;;;7.50;99.90;;;6.94;77.26;99193.47;5054460;28;20119;-67
2021/11/26 10:05:22;;;;;;;10.73;5.63;;;7.50;99.90;;;7.70;77.72;99320.13;5052960;28;20041;-67
2021/11/26 10:07:54;;;;;;;13.90;5.68;;;7.50;99.90;;;7.64;78.27;99307.06;5053823;28;20044;-67
2021/11/26 10:10:26;;;;;;;12.57;5.22;;;7.50;99.90;;;7.61;78.48;99301.84;5054138;28;20064;-67
2021/11/26 10:13:01;;;;;;;9.77;4.93;;;7.50;99.90;;;7.61;78.28;99296.59;5054106;28;20044;-67
2021/11/26 10:15:38;;;;;;;16.27;5.78;;;7.50;99.90;;;7.59;77.74;99293.09;5053752;28;20045;-67
2021/11/26 10:18:10;;;;;;;11.00;5.60;;;7.40;99.90;;;7.61;78.17;99269.41;5053647;28;20125;-66
2021/11/26 10:20:53;;;;;;;14.85;5.78;;;7.40;99.90;;;7.35;77.43;99227.81;5069350;28;20067;-69
2021/11/26 10:23:26;;;;;;;15.48;5.78;;;7.40;99.90;;;7.48;77.24;99262.63;5053930;28;20040;-70
2021/11/26 10:26:01;;;;;;;13.52;5.85;;;7.30;99.90;;;7.41;77.42;99246.13;5052601;28;20056;-69
2021/11/26 10:28:38;;;;;;;11.88;5.28;;;7.30;99.90;;;7.39;77.48;99218.97;5053548;28;20099;-72
2021/11/26 10:31:07;;;;;;;13.20;5.82;;;7.20;99.90;;;7.13;77.50;99163.34;5052519;28;20045;-71
2021/11/26 10:33:59;;;;;;;18.73;6.45;;;7.30;99.90;;;7.32;77.86;99209.44;5053491;28;20450;-71
2021/11/26 10:36:29;;;;;;;18.38;7.03;;;7.20;99.90;;;7.17;77.67;99172.91;5053465;28;20437;-72